Observation data for O'Donnell on 01/20/2019      Previous  Date       Current Mesonet Observations  Soil Data  Daily Summary Page  Observations in Plain Language
KOES 200600Z 13005KT 01/M06 A303 RMK A01 T00131056  RH  060%=      5-min Rain = 0
KOES 200605Z 15005KT 01/M06 A303 RMK A01 T00081059  RH  061%=      5-min Rain = 0
KOES 200610Z 15006KT 01/M06 A303 RMK A01 T00051057  RH  063%=      5-min Rain = 0
KOES 200615Z 14005KT 01/M05 A303 RMK A01 T00081054  RH  063%=      5-min Rain = 0
KOES 200620Z 14005KT 01/M05 A303 RMK A01 T00091054  RH  063%=      5-min Rain = 0
KOES 200625Z 14006KT 01/M06 A303 RMK A01 T00061056  RH  063%=      5-min Rain = 0
KOES 200630Z 13005KT 00/M06 A303 RMK A01 T00021057  RH  064%=      5-min Rain = 0
KOES 200635Z 14005KT 00/06 A303 RMK A01 T00-00-58  RH  065%=      5-min Rain = 0
KOES 200640Z 13005KT M00/M06 A303 RMK A01 T10021057  RH  066%=      5-min Rain = 0
KOES 200645Z 13005KT M00/M06 A303 RMK A01 T10021056  RH  067%=      5-min Rain = 0
KOES 200650Z 13006KT M00/M06 A303 RMK A01 T10021056  RH  067%=      5-min Rain = 0
KOES 200655Z 13006KT M00/M06 A303 RMK A01 T10011055  RH  067%=      5-min Rain = 0
KOES 200700Z 14005KT M00/M06 A303 RMK A01 T10031056  RH  067%=      5-min Rain = 0
KOES 200705Z 14005KT M00/M06 A303 RMK A01 T10041056  RH  068%=      5-min Rain = 0
KOES 200710Z 15006KT M00/M06 A303 RMK A01 T10041055  RH  069%=      5-min Rain = 0
KOES 200715Z 14005KT M00/M05 A303 RMK A01 T10031054  RH  069%=      5-min Rain = 0
KOES 200720Z 14005KT M00/M05 A303 RMK A01 T10021054  RH  068%=      5-min Rain = 0
KOES 200725Z 15006KT M00/M05 A303 RMK A01 T10031053  RH  069%=      5-min Rain = 0
KOES 200730Z 15006KT 00/05 A3029 RMK A01 T00000-50  RH  069%=      5-min Rain = 0
KOES 200735Z 15006KT 00/M05 A3029 RMK A01 T00041049  RH  068%=      5-min Rain = 0
KOES 200740Z 16007KT 01/M05 A303 RMK A01 T00061049  RH  067%=      5-min Rain = 0
KOES 200745Z 15006KT 01/M05 A3029 RMK A01 T00061049  RH  067%=      5-min Rain = 0
KOES 200750Z 15005KT 01/M05 A3029 RMK A01 T00051049  RH  067%=      5-min Rain = 0
KOES 200755Z 15006KT 00/M05 A3029 RMK A01 T00031049  RH  068%=      5-min Rain = 0
KOES 200800Z 15005KT 00/M05 A3029 RMK A01 T00021049  RH  069%=      5-min Rain = 0
KOES 200805Z 16005KT 00/M05 A3029 RMK A01 T00011049  RH  069%=      5-min Rain = 0
KOES 200810Z 15005KT 00/M05 A3029 RMK A01 T00011049  RH  069%=      5-min Rain = 0
KOES 200815Z 15005KT 00/M05 A3029 RMK A01 T00011049  RH  069%=      5-min Rain = 0
KOES 200820Z 15004KT 00/M05 A3029 RMK A01 T00021048  RH  069%=      5-min Rain = 0
KOES 200825Z 15004KT 00/M05 A3029 RMK A01 T00021048  RH  069%=      5-min Rain = 0
KOES 200830Z 16004KT 00/M05 A3029 RMK A01 T00021048  RH  069%=      5-min Rain = 0
KOES 200835Z 16004KT 00/M05 A3029 RMK A01 T00021048  RH  069%=      5-min Rain = 0
KOES 200840Z 16005KT 00/M05 A3029 RMK A01 T00011048  RH  070%=      5-min Rain = 0
KOES 200845Z 17005KT 00/05 A3029 RMK A01 T00-00-48  RH  070%=      5-min Rain = 0
KOES 200850Z 16005KT M00/M05 A3029 RMK A01 T10011048  RH  071%=      5-min Rain = 0
KOES 200855Z 14005KT 00/05 A3029 RMK A01 T00-00-48  RH  070%=      5-min Rain = 0
KOES 200900Z 14004KT M00/M05 A3029 RMK A01 T10021049  RH  071%=      5-min Rain = 0
KOES 200905Z 14004KT M00/M05 A3029 RMK A01 T10041049  RH  072%=      5-min Rain = 0
KOES 200910Z 14004KT M01/M05 A3029 RMK A01 T10061050  RH  072%=      5-min Rain = 0
KOES 200915Z 14004KT M01/M05 A3029 RMK A01 T10091051  RH  073%=      5-min Rain = 0
KOES 200920Z 15005KT M01/M05 A3029 RMK A01 T10111052  RH  074%=      5-min Rain = 0
KOES 200925Z 15005KT M01/M05 A3029 RMK A01 T10131052  RH  075%=      5-min Rain = 0
KOES 200930Z 14004KT M01/M05 A3029 RMK A01 T10121051  RH  075%=      5-min Rain = 0
KOES 200935Z 15005KT M01/M05 A3029 RMK A01 T10101050  RH  075%=      5-min Rain = 0
KOES 200940Z 15005KT M01/M05 A3028 RMK A01 T10081049  RH  074%=      5-min Rain = 0
KOES 200945Z 13005KT M01/M05 A3029 RMK A01 T10091052  RH  073%=      5-min Rain = 0
KOES 200950Z 12004KT M01/M06 A3029 RMK A01 T10131055  RH  073%=      5-min Rain = 0
KOES 200955Z 12004KT M02/M06 A3029 RMK A01 T10161055  RH  075%=      5-min Rain = 0
KOES 201000Z 13004KT M02/M06 A3028 RMK A01 T10181056  RH  076%=      5-min Rain = 0
KOES 201005Z 13004KT M02/M06 A3029 RMK A01 T10181055  RH  076%=      5-min Rain = 0
KOES 201010Z 12004KT M02/M06 A3029 RMK A01 T10181055  RH  076%=      5-min Rain = 0
KOES 201015Z 11005KT M02/M06 A3028 RMK A01 T10201055  RH  077%=      5-min Rain = 0
KOES 201020Z 11005KT M02/M06 A3028 RMK A01 T10201055  RH  078%=      5-min Rain = 0
KOES 201025Z 11005KT M02/M06 A3028 RMK A01 T10221055  RH  078%=      5-min Rain = 0
KOES 201030Z 11005KT M02/M06 A3028 RMK A01 T10231056  RH  078%=      5-min Rain = 0
KOES 201035Z 12005KT M02/M06 A3028 RMK A01 T10241057  RH  078%=      5-min Rain = 0
KOES 201040Z 12006KT M02/M06 A3027 RMK A01 T10241057  RH  078%=      5-min Rain = 0
KOES 201045Z 12005KT M03/M06 A3027 RMK A01 T10251058  RH  078%=      5-min Rain = 0
KOES 201050Z 12004KT M03/M06 A3027 RMK A01 T10261058  RH  078%=      5-min Rain = 0
KOES 201055Z 11006KT M03/M06 A3027 RMK A01 T10251058  RH  078%=      5-min Rain = 0
KOES 201100Z 12005KT M02/M06 A3027 RMK A01 T10241059  RH  078%=      5-min Rain = 0
KOES 201105Z 12004KT M02/M06 A3027 RMK A01 T10241059  RH  077%=      5-min Rain = 0
KOES 201110Z 11005KT M02/M06 A3027 RMK A01 T10231059  RH  077%=      5-min Rain = 0
KOES 201115Z 12005KT M02/M06 A3027 RMK A01 T10241060  RH  077%=      5-min Rain = 0
KOES 201120Z 12005KT M03/M06 A3027 RMK A01 T10251059  RH  078%=      5-min Rain = 0
KOES 201125Z 12005KT M03/M06 A3027 RMK A01 T10251060  RH  077%=      5-min Rain = 0
KOES 201130Z 13005KT M03/M06 A3027 RMK A01 T10251061  RH  076%=      5-min Rain = 0
KOES 201135Z 13004KT M03/M06 A3027 RMK A01 T10261062  RH  076%=      5-min Rain = 0
KOES 201140Z 14005KT M03/M06 A3027 RMK A01 T10271063  RH  076%=      5-min Rain = 0
KOES 201145Z 14005KT M03/M06 A3027 RMK A01 T10281063  RH  077%=      5-min Rain = 0
KOES 201150Z 14005KT M03/M06 A3026 RMK A01 T10281063  RH  077%=      5-min Rain = 0
KOES 201155Z 14005KT M03/M06 A3026 RMK A01 T10281064  RH  076%=      5-min Rain = 0
KOES 201200Z 14005KT M03/M06 A3026 RMK A01 T10271064  RH  076%=      5-min Rain = 0
KOES 201205Z 14006KT M03/M06 A3025 RMK A01 T10271064  RH  076%=      5-min Rain = 0
KOES 201210Z 14005KT M03/M06 A3025 RMK A01 T10261064  RH  075%=      5-min Rain = 0
KOES 201215Z 14006KT M03/M07 A3025 RMK A01 T10261065  RH  075%=      5-min Rain = 0
KOES 201220Z 13006KT M03/M07 A3025 RMK A01 T10251065  RH  074%=      5-min Rain = 0
KOES 201225Z 13006KT M03/M07 A3026 RMK A01 T10251066  RH  074%=      5-min Rain = 0
KOES 201230Z 13004KT M03/M07 A3026 RMK A01 T10251066  RH  074%=      5-min Rain = 0
KOES 201235Z 13004KT M03/M07 A3026 RMK A01 T10261067  RH  073%=      5-min Rain = 0
KOES 201240Z 13005KT M03/M07 A3025 RMK A01 T10261068  RH  073%=      5-min Rain = 0
KOES 201245Z 13005KT M03/M07 A3025 RMK A01 T10261068  RH  073%=      5-min Rain = 0
KOES 201250Z 14004KT M03/M07 A3025 RMK A01 T10261069  RH  073%=      5-min Rain = 0
KOES 201255Z 15004KT M03/M07 A3025 RMK A01 T10271070  RH  072%=      5-min Rain = 0
KOES 201300Z 14004KT M03/M07 A3025 RMK A01 T10261069  RH  072%=      5-min Rain = 0
KOES 201305Z 13004KT M03/M07 A3025 RMK A01 T10251069  RH  072%=      5-min Rain = 0
KOES 201310Z 13004KT M03/M07 A3025 RMK A01 T10251070  RH  072%=      5-min Rain = 0
KOES 201315Z 14004KT M03/M07 A3025 RMK A01 T10261069  RH  072%=      5-min Rain = 0
KOES 201320Z 15004KT M03/M07 A3025 RMK A01 T10261068  RH  073%=      5-min Rain = 0
KOES 201325Z 15004KT M03/M07 A3025 RMK A01 T10261067  RH  073%=      5-min Rain = 0
KOES 201330Z 15004KT M03/M07 A3025 RMK A01 T10271067  RH  074%=      5-min Rain = 0
KOES 201335Z 15005KT M03/M07 A3025 RMK A01 T10271067  RH  074%=      5-min Rain = 0
KOES 201340Z 15004KT M03/M07 A3025 RMK A01 T10281067  RH  074%=      5-min Rain = 0
KOES 201345Z 16005KT M03/M07 A3026 RMK A01 T10281068  RH  074%=      5-min Rain = 0
KOES 201350Z 16004KT M03/M07 A3026 RMK A01 T10291068  RH  075%=      5-min Rain = 0
KOES 201355Z 16004KT M03/M07 A3026 RMK A01 T10301068  RH  075%=      5-min Rain = 0
KOES 201400Z 16004KT M03/M07 A3026 RMK A01 T10311068  RH  075%=      5-min Rain = 0
KOES 201405Z 16004KT M03/M07 A3026 RMK A01 T10311068  RH  076%=      5-min Rain = 0
KOES 201410Z 17005KT M03/M07 A3026 RMK A01 T10311068  RH  076%=      5-min Rain = 0
KOES 201415Z 17005KT M03/M07 A3026 RMK A01 T10311068  RH  076%=      5-min Rain = 0
KOES 201420Z 16005KT M03/M07 A3026 RMK A01 T10311067  RH  076%=      5-min Rain = 0
KOES 201425Z 16004KT M03/M07 A3026 RMK A01 T10301066  RH  076%=      5-min Rain = 0
KOES 201430Z 17005KT M03/M07 A3026 RMK A01 T10301065  RH  077%=      5-min Rain = 0
KOES 201435Z 17004KT M03/M06 A3026 RMK A01 T10271063  RH  076%=      5-min Rain = 0
KOES 201440Z 17004KT M02/M06 A3026 RMK A01 T10241062  RH  075%=      5-min Rain = 0
KOES 201445Z 17004KT M02/M06 A3027 RMK A01 T10191060  RH  074%=      5-min Rain = 0
KOES 201450Z 17004KT M01/M06 A3027 RMK A01 T10131059  RH  071%=      5-min Rain = 0
KOES 201455Z 17004KT M01/M06 A3026 RMK A01 T10091058  RH  070%=      5-min Rain = 0
KOES 201500Z 18005KT M01/M06 A3026 RMK A01 T10061055  RH  070%=      5-min Rain = 0
KOES 201505Z 18006KT M00/M05 A3026 RMK A01 T10011052  RH  069%=      5-min Rain = 0
KOES 201510Z 17007KT 00/M05 A3025 RMK A01 T00031049  RH  068%=      5-min Rain = 0
KOES 201515Z 17007KT 01/M05 A3026 RMK A01 T00061047  RH  068%=      5-min Rain = 0
KOES 201520Z 18007KT 01/M05 A3025 RMK A01 T00061046  RH  068%=      5-min Rain = 0
KOES 201525Z 17008KT 01/M05 A3025 RMK A01 T00071045  RH  069%=      5-min Rain = 0
KOES 201530Z 18010KT 01/M04 A3025 RMK A01 T00081044  RH  069%=      5-min Rain = 0
KOES 201535Z 18008KT 01/M04 A3025 RMK A01 T00101042  RH  069%=      5-min Rain = 0
KOES 201540Z 18010G15KT 01/M04 A3025 RMK A01 T00131041  RH  067%=      5-min Rain = 0
KOES 201545Z 18009KT 02/M04 A3025 RMK A01 T00171039  RH  067%=      5-min Rain = 0
KOES 201550Z 18010KT 02/M04 A3026 RMK A01 T00221037  RH  065%=      5-min Rain = 0
KOES 201555Z 18010KT 03/M04 A3025 RMK A01 T00271035  RH  064%=      5-min Rain = 0
KOES 201600Z 18011KT 03/M03 A3025 RMK A01 T00331034  RH  062%=      5-min Rain = 0
KOES 201605Z 18013G20KT 04/M04 A3025 RMK A01 T00381035  RH  059%=      5-min Rain = 0
KOES 201610Z 18012KT 04/M04 A3025 RMK A01 T00391035  RH  059%=      5-min Rain = 0
KOES 201615Z 18012G17KT 04/M04 A3025 RMK A01 T00391036  RH  059%=      5-min Rain = 0
KOES 201620Z 18011G16KT 04/M04 A3025 RMK A01 T00411035  RH  058%=      5-min Rain = 0
KOES 201625Z 18012KT 05/M03 A3025 RMK A01 T00451034  RH  057%=      5-min Rain = 0
KOES 201630Z 19012KT 05/M03 A3025 RMK A01 T00491033  RH  056%=      5-min Rain = 0
KOES 201635Z 19012G17KT 05/M03 A3025 RMK A01 T00521034  RH  054%=      5-min Rain = 0
KOES 201640Z 18012KT 06/M03 A3025 RMK A01 T00551033  RH  053%=      5-min Rain = 0
KOES 201645Z 18011G16KT 06/M03 A3025 RMK A01 T00591032  RH  052%=      5-min Rain = 0
KOES 201650Z 18012KT 06/M03 A3024 RMK A01 T00641032  RH  051%=      5-min Rain = 0
KOES 201655Z 19013KT 07/M03 A3024 RMK A01 T00651034  RH  049%=      5-min Rain = 0
KOES 201700Z 19012KT 07/M04 A3024 RMK A01 T00681035  RH  048%=      5-min Rain = 0
KOES 201705Z 19012KT 07/M03 A3024 RMK A01 T00701034  RH  048%=      5-min Rain = 0
KOES 201710Z 19011KT 07/M03 A3024 RMK A01 T00731034  RH  047%=      5-min Rain = 0
KOES 201715Z 20012KT 08/M04 A3024 RMK A01 T00751035  RH  046%=      5-min Rain = 0
KOES 201720Z 19012KT 08/M03 A3024 RMK A01 T00791034  RH  045%=      5-min Rain = 0
KOES 201725Z 19011KT 08/M03 A3024 RMK A01 T00811033  RH  045%=      5-min Rain = 0
KOES 201730Z 20012KT 09/M04 A3025 RMK A01 T00851035  RH  043%=      5-min Rain = 0
KOES 201735Z 19011KT 09/M03 A3024 RMK A01 T00861034  RH  043%=      5-min Rain = 0
KOES 201740Z 20011KT 09/M03 A3024 RMK A01 T00881034  RH  042%=      5-min Rain = 0
KOES 201745Z 20012G17KT 09/M03 A3024 RMK A01 T00911034  RH  041%=      5-min Rain = 0
KOES 201750Z 19012KT 10/M04 A3024 RMK A01 T00951035  RH  040%=      5-min Rain = 0
KOES 201755Z 20011KT 10/M04 A3023 RMK A01 T00961035  RH  040%=      5-min Rain = 0
KOES 201800Z 20011KT 10/M03 A3023 RMK A01 T00981034  RH  039%=      5-min Rain = 0
KOES 201805Z 20010KT 10/M04 A3023 RMK A01 T00981036  RH  039%=      5-min Rain = 0
KOES 201810Z 20010KT 10/M04 A3022 RMK A01 T00991036  RH  039%=      5-min Rain = 0
KOES 201815Z 20010KT 10/M04 A3021 RMK A01 T01031036  RH  038%=      5-min Rain = 0
KOES 201820Z 19011KT 11/M04 A3021 RMK A01 T01061039  RH  036%=      5-min Rain = 0
KOES 201825Z 20011KT 11/M04 A302 RMK A01 T01091039  RH  035%=      5-min Rain = 0
KOES 201830Z 20011G16KT 11/M04 A302 RMK A01 T01111040  RH  035%=      5-min Rain = 0
KOES 201835Z 20011G16KT 11/M04 A302 RMK A01 T01121041  RH  034%=      5-min Rain = 0
KOES 201840Z 19011G16KT 11/M04 A3019 RMK A01 T01101042  RH  034%=      5-min Rain = 0
KOES 201845Z 21013KT 11/M04 A3019 RMK A01 T01121044  RH  033%=      5-min Rain = 0
KOES 201850Z 21011KT 12/M04 A3019 RMK A01 T01151044  RH  033%=      5-min Rain = 0
KOES 201855Z 20010KT 12/M04 A3018 RMK A01 T01191040  RH  033%=      5-min Rain = 0
KOES 201900Z 21011KT 12/M04 A3018 RMK A01 T01211043  RH  032%=      5-min Rain = 0
KOES 201905Z 21014G19KT 12/M05 A3018 RMK A01 T01211046  RH  031%=      5-min Rain = 0
KOES 201910Z 22014KT 12/M04 A3017 RMK A01 T01231044  RH  031%=      5-min Rain = 0
KOES 201915Z 21014KT 13/M04 A3017 RMK A01 T01281042  RH  030%=      5-min Rain = 0
KOES 201920Z 21013KT 13/M04 A3017 RMK A01 T01321042  RH  030%=      5-min Rain = 0
KOES 201925Z 21014KT 14/M04 A3016 RMK A01 T01361043  RH  029%=      5-min Rain = 0
KOES 201930Z 21012KT 14/M04 A3016 RMK A01 T01351043  RH  029%=      5-min Rain = 0
KOES 201935Z 21013KT 14/M04 A3015 RMK A01 T01381043  RH  028%=      5-min Rain = 0
KOES 201940Z 21012KT 14/M04 A3015 RMK A01 T01421044  RH  027%=      5-min Rain = 0
KOES 201945Z 21012G17KT 15/M04 A3015 RMK A01 T01461042  RH  027%=      5-min Rain = 0
KOES 201950Z 20012G17KT 15/M04 A3014 RMK A01 T01491043  RH  026%=      5-min Rain = 0
KOES 201955Z 20012G18KT 15/M05 A3014 RMK A01 T01501045  RH  026%=      5-min Rain = 0
KOES 202000Z 21012KT 15/M05 A3013 RMK A01 T01511045  RH  026%=      5-min Rain = 0
KOES 202005Z 21012KT 15/M05 A3013 RMK A01 T01531045  RH  025%=      5-min Rain = 0
KOES 202010Z 21012KT 16/M05 A3012 RMK A01 T01561047  RH  025%=      5-min Rain = 0
KOES 202015Z 21012KT 16/M05 A3012 RMK A01 T01581049  RH  024%=      5-min Rain = 0
KOES 202020Z 20011KT 16/M05 A3012 RMK A01 T01571051  RH  023%=      5-min Rain = 0
KOES 202025Z 20013KT 16/M05 A3012 RMK A01 T01581053  RH  023%=      5-min Rain = 0
KOES 202030Z 21011KT 16/M05 A3011 RMK A01 T01591051  RH  023%=      5-min Rain = 0
KOES 202035Z 21011KT 16/M05 A3011 RMK A01 T01621053  RH  023%=      5-min Rain = 0
KOES 202040Z 21009G15KT 16/M06 A3011 RMK A01 T01641057  RH  022%=      5-min Rain = 0
KOES 202045Z 22014G19KT 17/M08 A301 RMK A01 T01701080  RH  017%=      5-min Rain = 0
KOES 202050Z 21016KT 17/M08 A301 RMK A01 T01691084  RH  017%=      5-min Rain = 0
KOES 202055Z 21014KT 17/M08 A301 RMK A01 T01681080  RH  018%=      5-min Rain = 0
KOES 202100Z 21015KT 17/M08 A3009 RMK A01 T01671082  RH  017%=      5-min Rain = 0
KOES 202105Z 21012G21KT 17/M08 A3009 RMK A01 T01721079  RH  017%=      5-min Rain = 0
KOES 202110Z 21014KT 17/M09 A3009 RMK A01 T01741085  RH  016%=      5-min Rain = 0
KOES 202115Z 20014KT 17/M08 A3009 RMK A01 T01741084  RH  016%=      5-min Rain = 0
KOES 202120Z 21014KT 17/M08 A3009 RMK A01 T01741082  RH  017%=      5-min Rain = 0
KOES 202125Z 21014KT 17/M08 A3009 RMK A01 T01741080  RH  017%=      5-min Rain = 0
KOES 202130Z 21015KT 17/M08 A3009 RMK A01 T01731081  RH  017%=      5-min Rain = 0
KOES 202135Z 21014KT 17/M08 A3009 RMK A01 T01731082  RH  017%=      5-min Rain = 0
KOES 202140Z 20013G18KT 17/M08 A3009 RMK A01 T01711078  RH  017%=      5-min Rain = 0
KOES 202145Z 20013KT 17/M08 A3009 RMK A01 T01731076  RH  018%=      5-min Rain = 0
KOES 202150Z 20014KT 17/M08 A3008 RMK A01 T01731077  RH  017%=      5-min Rain = 0
KOES 202155Z 20014G19KT 17/M08 A3008 RMK A01 T01731076  RH  018%=      5-min Rain = 0
KOES 202200Z 21013G18KT 17/M08 A3008 RMK A01 T01731075  RH  018%=      5-min Rain = 0
KOES 202205Z 20014KT 17/M08 A3008 RMK A01 T01721079  RH  017%=      5-min Rain = 0
KOES 202210Z 20014KT 17/M08 A3008 RMK A01 T01721079  RH  017%=      5-min Rain = 0
KOES 202215Z 19012KT 17/M08 A3008 RMK A01 T01691079  RH  018%=      5-min Rain = 0
KOES 202220Z 20013KT 17/M08 A3008 RMK A01 T01711076  RH  018%=      5-min Rain = 0
KOES 202225Z 20014KT 17/M07 A3008 RMK A01 T01681074  RH  018%=      5-min Rain = 0
KOES 202230Z 20012KT 17/M07 A3008 RMK A01 T01691073  RH  018%=      5-min Rain = 0
KOES 202235Z 19013G19KT 17/M08 A3008 RMK A01 T01701076  RH  018%=      5-min Rain = 0
KOES 202240Z 20013KT 17/M08 A3008 RMK A01 T01691078  RH  018%=      5-min Rain = 0
KOES 202245Z 19013KT 17/M08 A3008 RMK A01 T01691079  RH  018%=      5-min Rain = 0
KOES 202250Z 19013G18KT 17/M08 A3008 RMK A01 T01681081  RH  017%=      5-min Rain = 0
KOES 202255Z 19010KT 17/M08 A3008 RMK A01 T01681079  RH  018%=      5-min Rain = 0
KOES 202300Z 20012KT 17/M08 A3008 RMK A01 T01681078  RH  018%=      5-min Rain = 0
KOES 202305Z 19011KT 17/M08 A3008 RMK A01 T01661081  RH  018%=      5-min Rain = 0
KOES 202310Z 19013G18KT 17/M08 A3008 RMK A01 T01651084  RH  017%=      5-min Rain = 0
KOES 202315Z 19012KT 16/M08 A3007 RMK A01 T01641084  RH  017%=      5-min Rain = 0
KOES 202320Z 19011KT 16/M09 A3007 RMK A01 T01631085  RH  017%=      5-min Rain = 0
KOES 202325Z 19009KT 16/M08 A3007 RMK A01 T01601082  RH  018%=      5-min Rain = 0
KOES 202330Z 19010KT 16/M08 A3007 RMK A01 T01561081  RH  019%=      5-min Rain = 0
KOES 202335Z 19009KT 15/M08 A3007 RMK A01 T01541081  RH  019%=      5-min Rain = 0
KOES 202340Z 19008KT 15/M08 A3007 RMK A01 T01521082  RH  019%=      5-min Rain = 0
KOES 202345Z 19008KT 15/M08 A3007 RMK A01 T01491081  RH  020%=      5-min Rain = 0
KOES 202350Z 19008KT 15/M08 A3007 RMK A01 T01461078  RH  020%=      5-min Rain = 0
KOES 202355Z 18009KT 14/M08 A3007 RMK A01 T01431076  RH  021%=      5-min Rain = 0
KOES 210000Z 18008KT 14/M07 A3007 RMK A01 T01411073  RH  022%=      5-min Rain = 0
KOES 210005Z 18008KT 14/M07 A3007 RMK A01 T01371070  RH  023%=      5-min Rain = 0
KOES 210010Z 18008KT 13/M07 A3007 RMK A01 T01331069  RH  024%=      5-min Rain = 0
KOES 210015Z 18008KT 13/M07 A3007 RMK A01 T01301068  RH  025%=      5-min Rain = 0
KOES 210020Z 18008KT 13/M07 A3007 RMK A01 T01271067  RH  025%=      5-min Rain = 0
KOES 210025Z 18009KT 13/M07 A3006 RMK A01 T01251067  RH  025%=      5-min Rain = 0
KOES 210030Z 18010KT 12/M07 A3006 RMK A01 T01241067  RH  026%=      5-min Rain = 0
KOES 210035Z 18010KT 12/M07 A3006 RMK A01 T01221067  RH  026%=      5-min Rain = 0
KOES 210040Z 19010KT 12/M07 A3006 RMK A01 T01211067  RH  026%=      5-min Rain = 0
KOES 210045Z 19009KT 12/M07 A3007 RMK A01 T01191067  RH  027%=      5-min Rain = 0
KOES 210050Z 19009KT 12/M07 A3007 RMK A01 T01151067  RH  027%=      5-min Rain = 0
KOES 210055Z 19009KT 11/M07 A3007 RMK A01 T01121067  RH  028%=      5-min Rain = 0
KOES 210100Z 19009KT 11/M07 A3007 RMK A01 T01101067  RH  028%=      5-min Rain = 0
KOES 210105Z 19009KT 11/M07 A3007 RMK A01 T01091067  RH  028%=      5-min Rain = 0
KOES 210110Z 19009KT 11/M07 A3007 RMK A01 T01081067  RH  029%=      5-min Rain = 0
KOES 210115Z 19010KT 11/M07 A3006 RMK A01 T01081067  RH  029%=      5-min Rain = 0
KOES 210120Z 19010KT 11/M07 A3006 RMK A01 T01071067  RH  029%=      5-min Rain = 0
KOES 210125Z 19009KT 11/M07 A3006 RMK A01 T01061067  RH  029%=      5-min Rain = 0
KOES 210130Z 19009KT 10/M07 A3006 RMK A01 T01041067  RH  030%=      5-min Rain = 0
KOES 210135Z 18009KT 10/M07 A3006 RMK A01 T01021066  RH  030%=      5-min Rain = 0
KOES 210140Z 18010KT 10/M07 A3006 RMK A01 T01011066  RH  030%=      5-min Rain = 0
KOES 210145Z 18009KT 10/M07 A3006 RMK A01 T00991066  RH  031%=      5-min Rain = 0
KOES 210150Z 18009KT 10/M07 A3006 RMK A01 T00981065  RH  031%=      5-min Rain = 0
KOES 210155Z 18010KT 10/M07 A3006 RMK A01 T00981066  RH  031%=      5-min Rain = 0
KOES 210200Z 18010KT 10/M07 A3006 RMK A01 T00971065  RH  031%=      5-min Rain = 0
KOES 210205Z 18010KT 10/M06 A3006 RMK A01 T00961064  RH  032%=      5-min Rain = 0
KOES 210210Z 18010KT 10/M06 A3005 RMK A01 T00951063  RH  032%=      5-min Rain = 0
KOES 210215Z 18010KT 09/M06 A3005 RMK A01 T00941062  RH  033%=      5-min Rain = 0
KOES 210220Z 18010KT 09/M06 A3005 RMK A01 T00911060  RH  034%=      5-min Rain = 0
KOES 210225Z 18009KT 09/M06 A3005 RMK A01 T00881057  RH  035%=      5-min Rain = 0
KOES 210230Z 18010KT 09/M06 A3005 RMK A01 T00881055  RH  036%=      5-min Rain = 0
KOES 210235Z 18009KT 09/M05 A3005 RMK A01 T00871052  RH  037%=      5-min Rain = 0
KOES 210240Z 18009KT 09/M05 A3004 RMK A01 T00851050  RH  038%=      5-min Rain = 0
KOES 210245Z 18009KT 09/M05 A3004 RMK A01 T00851048  RH  039%=      5-min Rain = 0
KOES 210250Z 18010KT 09/M05 A3004 RMK A01 T00851045  RH  040%=      5-min Rain = 0
KOES 210255Z 18009KT 09/M04 A3004 RMK A01 T00861043  RH  040%=      5-min Rain = 0
KOES 210300Z 18010KT 09/M04 A3004 RMK A01 T00881041  RH  040%=      5-min Rain = 0
KOES 210305Z 18010KT 09/M04 A3004 RMK A01 T00901040  RH  040%=      5-min Rain = 0
KOES 210310Z 18009KT 09/M04 A3004 RMK A01 T00891038  RH  041%=      5-min Rain = 0
KOES 210315Z 18010KT 09/M04 A3003 RMK A01 T00891037  RH  041%=      5-min Rain = 0
KOES 210320Z 18010KT 09/M04 A3003 RMK A01 T00891036  RH  041%=      5-min Rain = 0
KOES 210325Z 18011KT 09/M04 A3003 RMK A01 T00911036  RH  041%=      5-min Rain = 0
KOES 210330Z 18010G15KT 09/M04 A3003 RMK A01 T00911035  RH  041%=      5-min Rain = 0
KOES 210335Z 18010KT 09/M03 A3003 RMK A01 T00901034  RH  042%=      5-min Rain = 0
KOES 210340Z 18010KT 09/M03 A3002 RMK A01 T00881034  RH  042%=      5-min Rain = 0
KOES 210345Z 18011KT 09/M03 A3002 RMK A01 T00881033  RH  042%=      5-min Rain = 0
KOES 210350Z 18010KT 09/M03 A3002 RMK A01 T00881033  RH  043%=      5-min Rain = 0
KOES 210355Z 18010KT 09/M03 A3002 RMK A01 T00861033  RH  043%=      5-min Rain = 0
KOES 210400Z 18011KT 09/M03 A3002 RMK A01 T00861033  RH  043%=      5-min Rain = 0
KOES 210405Z 18011KT 08/M03 A3002 RMK A01 T00841032  RH  044%=      5-min Rain = 0
KOES 210410Z 18011KT 08/M03 A3002 RMK A01 T00821032  RH  045%=      5-min Rain = 0
KOES 210415Z 18011KT 08/M03 A3002 RMK A01 T00801032  RH  045%=      5-min Rain = 0
KOES 210420Z 19010KT 08/M03 A3002 RMK A01 T00781032  RH  046%=      5-min Rain = 0
KOES 210425Z 19011KT 08/M03 A3002 RMK A01 T00771032  RH  046%=      5-min Rain = 0
KOES 210430Z 19010KT 08/M03 A3002 RMK A01 T00761032  RH  046%=      5-min Rain = 0
KOES 210435Z 19010KT 08/M03 A3003 RMK A01 T00751032  RH  047%=      5-min Rain = 0
KOES 210440Z 19010KT 07/M03 A3003 RMK A01 T00741032  RH  047%=      5-min Rain = 0
KOES 210445Z 19010KT 07/M03 A3003 RMK A01 T00721031  RH  048%=      5-min Rain = 0
KOES 210450Z 20010KT 07/M03 A3003 RMK A01 T00691031  RH  049%=      5-min Rain = 0
KOES 210455Z 20010KT 07/M03 A3003 RMK A01 T00681031  RH  050%=      5-min Rain = 0
KOES 210500Z 20011KT 07/M03 A3003 RMK A01 T00671031  RH  050%=      5-min Rain = 0
KOES 210505Z 20011KT 07/M03 A3003 RMK A01 T00661030  RH  050%=      5-min Rain = 0
KOES 210510Z 20011KT 07/M03 A3003 RMK A01 T00671030  RH  050%=      5-min Rain = 0
KOES 210515Z 20011KT 07/M03 A3003 RMK A01 T00661030  RH  051%=      5-min Rain = 0
KOES 210520Z 20010KT 07/M03 A3003 RMK A01 T00661030  RH  051%=      5-min Rain = 0
KOES 210525Z 20010KT 07/M03 A3003 RMK A01 T00651029  RH  051%=      5-min Rain = 0
KOES 210530Z 20011KT 06/M03 A3004 RMK A01 T00631028  RH  052%=      5-min Rain = 0
KOES 210535Z 20010KT 06/M03 A3003 RMK A01 T00631028  RH  052%=      5-min Rain = 0
KOES 210540Z 20011KT 06/M03 A3003 RMK A01 T00611028  RH  053%=      5-min Rain = 0
KOES 210545Z 20010KT 06/M03 A3003 RMK A01 T00601028  RH  053%=      5-min Rain = 0
KOES 210550Z 20011KT 06/M03 A3002 RMK A01 T00591028  RH  054%=      5-min Rain = 0
KOES 210555Z 20010KT 06/M03 A3002 RMK A01 T00591028  RH  054%=      5-min Rain = 0

Page generated in 0.0091 seconds.